Terminal Aerodrome Forecast
Issued by NWS

Home | Current Version | Previous Version | Text Only | Print | Product List | Glossary On
Versions: 1 2 3 4 5 6 7 8 9 10 11 12 13 14 15 16 17 18 19 20 21 22 23 24 25 26 27 28 29 30 31 32 33 34 35
000
FTUS43 KLOT 270900 AAA
TAFDPA
TAF AMD
KDPA 270904Z 2709/2806 32008KT 5SM BR SCT025 SCT080
     FM271400 31011G16KT P6SM VCSH BKN015 BKN030
     FM271800 31012G18KT P6SM BKN025
     FM272000 31011G15KT P6SM SCT025
     FM280100 29006KT P6SM SCT250=

USA.gov is the U.S. government's official web portal to all federal, state and local government web resources and services.